sensor_id;sensor_type;location;lat;lon;timestamp;P1;durP1;ratioP1;P2;durP2;ratioP2
28304;SDS011;15569;42.652;23.040;2024-02-21T00:00:01;8.20;;;3.33;;
28304;SDS011;15569;42.652;23.040;2024-02-21T00:02:27;4.90;;;2.95;;
28304;SDS011;15569;42.652;23.040;2024-02-21T00:04:52;5.90;;;3.20;;
28304;SDS011;15569;42.652;23.040;2024-02-21T00:07:17;4.57;;;2.83;;
28304;SDS011;15569;42.652;23.040;2024-02-21T00:09:43;7.80;;;3.33;;
28304;SDS011;15569;42.652;23.040;2024-02-21T00:12:08;4.53;;;2.70;;
28304;SDS011;15569;42.652;23.040;2024-02-21T00:14:33;4.05;;;2.63;;
28304;SDS011;15569;42.652;23.040;2024-02-21T00:16:59;4.65;;;3.03;;
28304;SDS011;15569;42.652;23.040;2024-02-21T00:19:24;7.22;;;3.20;;
28304;SDS011;15569;42.652;23.040;2024-02-21T00:21:50;4.95;;;2.92;;
28304;SDS011;15569;42.652;23.040;2024-02-21T00:24:15;7.03;;;3.40;;
28304;SDS011;15569;42.652;23.040;2024-02-21T00:26:41;5.80;;;3.33;;
28304;SDS011;15569;42.652;23.040;2024-02-21T00:29:06;8.20;;;3.47;;
28304;SDS011;15569;42.652;23.040;2024-02-21T00:31:31;5.88;;;3.53;;
28304;SDS011;15569;42.652;23.040;2024-02-21T00:33:57;6.70;;;3.50;;
28304;SDS011;15569;42.652;23.040;2024-02-21T00:36:23;5.20;;;3.20;;
28304;SDS011;15569;42.652;23.040;2024-02-21T00:38:48;5.75;;;3.05;;
28304;SDS011;15569;42.652;23.040;2024-02-21T00:41:13;7.20;;;4.70;;
28304;SDS011;15569;42.652;23.040;2024-02-21T00:43:39;6.25;;;3.45;;
28304;SDS011;15569;42.652;23.040;2024-02-21T00:46:05;6.35;;;3.53;;
28304;SDS011;15569;42.652;23.040;2024-02-21T00:48:31;4.10;;;3.17;;
28304;SDS011;15569;42.652;23.040;2024-02-21T00:50:56;7.60;;;3.58;;
28304;SDS011;15569;42.652;23.040;2024-02-21T00:53:22;7.38;;;3.95;;
28304;SDS011;15569;42.652;23.040;2024-02-21T00:55:47;5.82;;;3.80;;
28304;SDS011;15569;42.652;23.040;2024-02-21T00:58:12;6.15;;;3.35;;
28304;SDS011;15569;42.652;23.040;2024-02-21T01:00:38;7.43;;;4.05;;
28304;SDS011;15569;42.652;23.040;2024-02-21T01:03:03;6.18;;;3.47;;
28304;SDS011;15569;42.652;23.040;2024-02-21T01:05:29;6.63;;;3.85;;
28304;SDS011;15569;42.652;23.040;2024-02-21T01:07:54;6.63;;;3.85;;
28304;SDS011;15569;42.652;23.040;2024-02-21T01:10:20;15.10;;;5.63;;
28304;SDS011;15569;42.652;23.040;2024-02-21T01:12:45;6.53;;;3.83;;
28304;SDS011;15569;42.652;23.040;2024-02-21T01:15:10;11.65;;;4.88;;
28304;SDS011;15569;42.652;23.040;2024-02-21T01:17:36;9.40;;;4.30;;
28304;SDS011;15569;42.652;23.040;2024-02-21T01:20:02;9.73;;;4.78;;
28304;SDS011;15569;42.652;23.040;2024-02-21T01:22:30;5.93;;;4.25;;
28304;SDS011;15569;42.652;23.040;2024-02-21T01:24:55;6.45;;;4.03;;
28304;SDS011;15569;42.652;23.040;2024-02-21T01:27:21;10.50;;;5.70;;
28304;SDS011;15569;42.652;23.040;2024-02-21T01:29:46;7.13;;;4.25;;
28304;SDS011;15569;42.652;23.040;2024-02-21T01:32:14;6.13;;;4.00;;
28304;SDS011;15569;42.652;23.040;2024-02-21T01:34:40;8.98;;;4.03;;
28304;SDS011;15569;42.652;23.040;2024-02-21T01:37:05;8.68;;;5.18;;
28304;SDS011;15569;42.652;23.040;2024-02-21T01:39:32;7.75;;;4.53;;
28304;SDS011;15569;42.652;23.040;2024-02-21T01:41:58;6.68;;;4.03;;
28304;SDS011;15569;42.652;23.040;2024-02-21T01:44:23;8.50;;;5.85;;
28304;SDS011;15569;42.652;23.040;2024-02-21T01:46:49;9.90;;;5.68;;
28304;SDS011;15569;42.652;23.040;2024-02-21T01:49:16;12.20;;;6.68;;
28304;SDS011;15569;42.652;23.040;2024-02-21T01:51:41;9.88;;;5.13;;
28304;SDS011;15569;42.652;23.040;2024-02-21T01:54:07;12.23;;;5.28;;
28304;SDS011;15569;42.652;23.040;2024-02-21T01:56:33;7.25;;;4.80;;
28304;SDS011;15569;42.652;23.040;2024-02-21T01:58:59;13.32;;;6.00;;
28304;SDS011;15569;42.652;23.040;2024-02-21T02:01:24;9.68;;;5.55;;
28304;SDS011;15569;42.652;23.040;2024-02-21T02:03:50;11.27;;;6.45;;
28304;SDS011;15569;42.652;23.040;2024-02-21T02:06:16;13.20;;;6.65;;
28304;SDS011;15569;42.652;23.040;2024-02-21T02:08:41;10.95;;;7.10;;
28304;SDS011;15569;42.652;23.040;2024-02-21T02:11:07;12.63;;;7.78;;
28304;SDS011;15569;42.652;23.040;2024-02-21T02:13:32;12.50;;;6.80;;
28304;SDS011;15569;42.652;23.040;2024-02-21T02:15:58;13.38;;;7.63;;
28304;SDS011;15569;42.652;23.040;2024-02-21T02:18:23;15.57;;;7.80;;
28304;SDS011;15569;42.652;23.040;2024-02-21T02:20:49;14.90;;;8.05;;
28304;SDS011;15569;42.652;23.040;2024-02-21T02:25:55;13.55;;;7.38;;
28304;SDS011;15569;42.652;23.040;2024-02-21T02:28:21;15.80;;;8.35;;
28304;SDS011;15569;42.652;23.040;2024-02-21T02:30:47;12.07;;;7.47;;
28304;SDS011;15569;42.652;23.040;2024-02-21T02:33:12;19.52;;;8.85;;
28304;SDS011;15569;42.652;23.040;2024-02-21T02:35:38;17.05;;;8.27;;
28304;SDS011;15569;42.652;23.040;2024-02-21T02:38:04;17.63;;;8.65;;
28304;SDS011;15569;42.652;23.040;2024-02-21T02:40:30;20.33;;;10.90;;
28304;SDS011;15569;42.652;23.040;2024-02-21T02:42:55;22.70;;;9.90;;
28304;SDS011;15569;42.652;23.040;2024-02-21T02:45:21;19.35;;;10.15;;
28304;SDS011;15569;42.652;23.040;2024-02-21T02:47:54;19.42;;;9.40;;
28304;SDS011;15569;42.652;23.040;2024-02-21T02:50:22;13.88;;;7.35;;
28304;SDS011;15569;42.652;23.040;2024-02-21T02:52:47;19.52;;;7.80;;
28304;SDS011;15569;42.652;23.040;2024-02-21T02:55:13;14.27;;;8.20;;
28304;SDS011;15569;42.652;23.040;2024-02-21T02:57:39;14.65;;;7.85;;
28304;SDS011;15569;42.652;23.040;2024-02-21T03:00:07;15.27;;;7.88;;
28304;SDS011;15569;42.652;23.040;2024-02-21T03:02:33;11.65;;;7.05;;
28304;SDS011;15569;42.652;23.040;2024-02-21T03:04:58;11.18;;;6.80;;
28304;SDS011;15569;42.652;23.040;2024-02-21T03:07:24;7.80;;;4.70;;
28304;SDS011;15569;42.652;23.040;2024-02-21T03:09:50;20.38;;;8.77;;
28304;SDS011;15569;42.652;23.040;2024-02-21T03:12:15;20.73;;;10.50;;
28304;SDS011;15569;42.652;23.040;2024-02-21T03:14:49;21.58;;;9.07;;
28304;SDS011;15569;42.652;23.040;2024-02-21T03:17:17;27.23;;;11.18;;
28304;SDS011;15569;42.652;23.040;2024-02-21T03:19:43;26.05;;;11.00;;
28304;SDS011;15569;42.652;23.040;2024-02-21T03:22:08;26.23;;;10.68;;
28304;SDS011;15569;42.652;23.040;2024-02-21T03:24:33;18.40;;;9.52;;
28304;SDS011;15569;42.652;23.040;2024-02-21T03:26:59;22.52;;;9.93;;
28304;SDS011;15569;42.652;23.040;2024-02-21T03:29:24;19.35;;;9.43;;
28304;SDS011;15569;42.652;23.040;2024-02-21T03:31:50;18.65;;;10.18;;
28304;SDS011;15569;42.652;23.040;2024-02-21T03:34:15;21.58;;;10.68;;
28304;SDS011;15569;42.652;23.040;2024-02-21T03:36:41;21.77;;;11.45;;
28304;SDS011;15569;42.652;23.040;2024-02-21T03:39:06;25.30;;;11.52;;
28304;SDS011;15569;42.652;23.040;2024-02-21T03:41:34;21.48;;;11.15;;
28304;SDS011;15569;42.652;23.040;2024-02-21T03:43:59;21.40;;;10.52;;
28304;SDS011;15569;42.652;23.040;2024-02-21T03:46:25;21.45;;;10.45;;
28304;SDS011;15569;42.652;23.040;2024-02-21T03:48:50;21.45;;;10.23;;
28304;SDS011;15569;42.652;23.040;2024-02-21T03:51:16;20.00;;;10.35;;
28304;SDS011;15569;42.652;23.040;2024-02-21T03:53:41;26.90;;;12.05;;
28304;SDS011;15569;42.652;23.040;2024-02-21T03:56:07;23.95;;;11.57;;
28304;SDS011;15569;42.652;23.040;2024-02-21T03:58:33;21.13;;;9.77;;
28304;SDS011;15569;42.652;23.040;2024-02-21T04:01:01;20.33;;;11.25;;
28304;SDS011;15569;42.652;23.040;2024-02-21T04:03:27;14.97;;;9.77;;
28304;SDS011;15569;42.652;23.040;2024-02-21T04:05:54;17.65;;;9.73;;
28304;SDS011;15569;42.652;23.040;2024-02-21T04:08:20;15.75;;;9.43;;
28304;SDS011;15569;42.652;23.040;2024-02-21T04:10:45;21.48;;;11.25;;
28304;SDS011;15569;42.652;23.040;2024-02-21T04:13:10;19.77;;;10.10;;
28304;SDS011;15569;42.652;23.040;2024-02-21T04:15:36;15.38;;;9.88;;
28304;SDS011;15569;42.652;23.040;2024-02-21T04:18:01;20.75;;;9.75;;
28304;SDS011;15569;42.652;23.040;2024-02-21T04:20:28;17.25;;;9.38;;
28304;SDS011;15569;42.652;23.040;2024-02-21T04:22:53;17.65;;;10.02;;
28304;SDS011;15569;42.652;23.040;2024-02-21T04:25:19;18.52;;;9.77;;
28304;SDS011;15569;42.652;23.040;2024-02-21T04:27:44;15.98;;;8.73;;
28304;SDS011;15569;42.652;23.040;2024-02-21T04:30:10;14.95;;;8.70;;
28304;SDS011;15569;42.652;23.040;2024-02-21T04:32:35;16.95;;;8.63;;
28304;SDS011;15569;42.652;23.040;2024-02-21T04:35:01;21.15;;;8.73;;
28304;SDS011;15569;42.652;23.040;2024-02-21T04:37:26;16.55;;;8.75;;
28304;SDS011;15569;42.652;23.040;2024-02-21T04:39:52;14.30;;;9.20;;
28304;SDS011;15569;42.652;23.040;2024-02-21T04:42:17;17.13;;;9.05;;
28304;SDS011;15569;42.652;23.040;2024-02-21T04:44:42;17.58;;;7.80;;
28304;SDS011;15569;42.652;23.040;2024-02-21T04:47:08;12.48;;;7.30;;
28304;SDS011;15569;42.652;23.040;2024-02-21T04:49:33;13.43;;;7.45;;
28304;SDS011;15569;42.652;23.040;2024-02-21T04:51:59;14.43;;;9.02;;
28304;SDS011;15569;42.652;23.040;2024-02-21T04:54:25;30.25;;;17.30;;
28304;SDS011;15569;42.652;23.040;2024-02-21T04:56:50;21.67;;;10.85;;
28304;SDS011;15569;42.652;23.040;2024-02-21T04:59:16;15.05;;;9.02;;
28304;SDS011;15569;42.652;23.040;2024-02-21T05:01:42;15.27;;;7.75;;
28304;SDS011;15569;42.652;23.040;2024-02-21T05:04:07;12.57;;;7.65;;
28304;SDS011;15569;42.652;23.040;2024-02-21T05:06:36;19.15;;;8.70;;
28304;SDS011;15569;42.652;23.040;2024-02-21T05:09:08;18.63;;;9.18;;
28304;SDS011;15569;42.652;23.040;2024-02-21T05:11:35;13.88;;;6.72;;
28304;SDS011;15569;42.652;23.040;2024-02-21T05:14:01;15.80;;;8.95;;
28304;SDS011;15569;42.652;23.040;2024-02-21T05:16:26;25.35;;;11.57;;
28304;SDS011;15569;42.652;23.040;2024-02-21T05:18:51;25.45;;;12.73;;
28304;SDS011;15569;42.652;23.040;2024-02-21T05:21:17;25.20;;;13.60;;
28304;SDS011;15569;42.652;23.040;2024-02-21T05:23:42;22.05;;;11.73;;
28304;SDS011;15569;42.652;23.040;2024-02-21T05:26:08;28.80;;;12.75;;
28304;SDS011;15569;42.652;23.040;2024-02-21T05:28:34;17.05;;;9.45;;
28304;SDS011;15569;42.652;23.040;2024-02-21T05:30:59;15.98;;;8.30;;
28304;SDS011;15569;42.652;23.040;2024-02-21T05:33:24;12.70;;;7.55;;
28304;SDS011;15569;42.652;23.040;2024-02-21T05:35:50;19.42;;;9.52;;
28304;SDS011;15569;42.652;23.040;2024-02-21T05:38:16;16.27;;;8.70;;
28304;SDS011;15569;42.652;23.040;2024-02-21T05:40:41;16.98;;;8.52;;
28304;SDS011;15569;42.652;23.040;2024-02-21T05:43:07;18.45;;;9.45;;
28304;SDS011;15569;42.652;23.040;2024-02-21T05:45:33;23.95;;;11.98;;
28304;SDS011;15569;42.652;23.040;2024-02-21T05:47:59;29.27;;;13.20;;
28304;SDS011;15569;42.652;23.040;2024-02-21T05:50:24;20.52;;;11.38;;
28304;SDS011;15569;42.652;23.040;2024-02-21T05:52:51;21.95;;;11.73;;
28304;SDS011;15569;42.652;23.040;2024-02-21T05:55:17;27.08;;;14.00;;
28304;SDS011;15569;42.652;23.040;2024-02-21T05:57:43;31.83;;;16.30;;
28304;SDS011;15569;42.652;23.040;2024-02-21T06:00:08;37.28;;;17.63;;
28304;SDS011;15569;42.652;23.040;2024-02-21T06:02:34;30.08;;;14.68;;
28304;SDS011;15569;42.652;23.040;2024-02-21T06:04:59;33.13;;;16.63;;
28304;SDS011;15569;42.652;23.040;2024-02-21T06:07:25;37.50;;;14.52;;
28304;SDS011;15569;42.652;23.040;2024-02-21T06:09:50;31.05;;;12.75;;
28304;SDS011;15569;42.652;23.040;2024-02-21T06:12:15;33.40;;;14.98;;
28304;SDS011;15569;42.652;23.040;2024-02-21T06:14:41;33.05;;;16.25;;
28304;SDS011;15569;42.652;23.040;2024-02-21T06:17:06;36.40;;;19.65;;
28304;SDS011;15569;42.652;23.040;2024-02-21T06:19:32;37.72;;;20.38;;
28304;SDS011;15569;42.652;23.040;2024-02-21T06:21:57;52.97;;;25.33;;
28304;SDS011;15569;42.652;23.040;2024-02-21T06:24:22;65.80;;;31.65;;
28304;SDS011;15569;42.652;23.040;2024-02-21T06:26:48;79.80;;;36.22;;
28304;SDS011;15569;42.652;23.040;2024-02-21T06:29:13;80.45;;;36.95;;
28304;SDS011;15569;42.652;23.040;2024-02-21T06:31:39;58.83;;;27.33;;
28304;SDS011;15569;42.652;23.040;2024-02-21T06:34:05;51.17;;;24.25;;
28304;SDS011;15569;42.652;23.040;2024-02-21T06:36:31;55.70;;;24.23;;
28304;SDS011;15569;42.652;23.040;2024-02-21T06:38:56;53.53;;;24.20;;
28304;SDS011;15569;42.652;23.040;2024-02-21T06:41:21;53.10;;;25.45;;
28304;SDS011;15569;42.652;23.040;2024-02-21T06:43:47;59.47;;;29.00;;
28304;SDS011;15569;42.652;23.040;2024-02-21T06:46:31;65.72;;;30.55;;
28304;SDS011;15569;42.652;23.040;2024-02-21T06:48:58;66.18;;;28.05;;
28304;SDS011;15569;42.652;23.040;2024-02-21T06:51:25;40.83;;;20.13;;
28304;SDS011;15569;42.652;23.040;2024-02-21T06:53:50;45.83;;;19.30;;
28304;SDS011;15569;42.652;23.040;2024-02-21T06:56:16;25.52;;;13.23;;
28304;SDS011;15569;42.652;23.040;2024-02-21T06:58:41;19.13;;;10.27;;
28304;SDS011;15569;42.652;23.040;2024-02-21T07:01:07;26.55;;;9.60;;
28304;SDS011;15569;42.652;23.040;2024-02-21T07:03:32;26.10;;;13.90;;
28304;SDS011;15569;42.652;23.040;2024-02-21T07:05:58;34.97;;;21.38;;
28304;SDS011;15569;42.652;23.040;2024-02-21T07:08:23;19.67;;;9.23;;
28304;SDS011;15569;42.652;23.040;2024-02-21T07:10:49;19.85;;;10.10;;
28304;SDS011;15569;42.652;23.040;2024-02-21T07:13:14;15.52;;;7.95;;
28304;SDS011;15569;42.652;23.040;2024-02-21T07:15:40;18.98;;;8.15;;
28304;SDS011;15569;42.652;23.040;2024-02-21T07:18:06;15.25;;;7.95;;
28304;SDS011;15569;42.652;23.040;2024-02-21T07:20:31;14.38;;;6.95;;
28304;SDS011;15569;42.652;23.040;2024-02-21T07:22:58;12.63;;;6.68;;
28304;SDS011;15569;42.652;23.040;2024-02-21T07:25:24;17.45;;;8.38;;
28304;SDS011;15569;42.652;23.040;2024-02-21T07:27:50;18.98;;;9.35;;
28304;SDS011;15569;42.652;23.040;2024-02-21T07:30:15;16.33;;;8.98;;
28304;SDS011;15569;42.652;23.040;2024-02-21T07:32:40;28.25;;;11.65;;
28304;SDS011;15569;42.652;23.040;2024-02-21T07:35:06;20.15;;;10.18;;
28304;SDS011;15569;42.652;23.040;2024-02-21T07:37:35;19.40;;;10.32;;
28304;SDS011;15569;42.652;23.040;2024-02-21T07:40:02;22.98;;;11.48;;
28304;SDS011;15569;42.652;23.040;2024-02-21T07:42:28;22.70;;;9.80;;
28304;SDS011;15569;42.652;23.040;2024-02-21T07:44:54;16.70;;;8.82;;
28304;SDS011;15569;42.652;23.040;2024-02-21T07:47:21;14.73;;;7.43;;
28304;SDS011;15569;42.652;23.040;2024-02-21T07:49:46;16.25;;;7.80;;
28304;SDS011;15569;42.652;23.040;2024-02-21T07:52:13;20.67;;;9.35;;
28304;SDS011;15569;42.652;23.040;2024-02-21T07:54:39;21.45;;;10.18;;
28304;SDS011;15569;42.652;23.040;2024-02-21T07:57:04;16.00;;;8.60;;
28304;SDS011;15569;42.652;23.040;2024-02-21T07:59:30;19.73;;;9.88;;
28304;SDS011;15569;42.652;23.040;2024-02-21T08:01:58;19.42;;;8.55;;
28304;SDS011;15569;42.652;23.040;2024-02-21T08:04:24;16.20;;;8.65;;
28304;SDS011;15569;42.652;23.040;2024-02-21T08:06:53;17.60;;;8.35;;
28304;SDS011;15569;42.652;23.040;2024-02-21T08:09:20;14.40;;;7.03;;
28304;SDS011;15569;42.652;23.040;2024-02-21T08:11:47;20.00;;;8.02;;
28304;SDS011;15569;42.652;23.040;2024-02-21T08:14:12;19.90;;;8.55;;
28304;SDS011;15569;42.652;23.040;2024-02-21T08:16:37;12.13;;;6.70;;
28304;SDS011;15569;42.652;23.040;2024-02-21T08:19:03;17.25;;;8.05;;
28304;SDS011;15569;42.652;23.040;2024-02-21T08:21:29;13.82;;;6.97;;
28304;SDS011;15569;42.652;23.040;2024-02-21T08:23:54;17.70;;;8.80;;
28304;SDS011;15569;42.652;23.040;2024-02-21T08:26:20;13.52;;;7.78;;
28304;SDS011;15569;42.652;23.040;2024-02-21T08:28:45;12.20;;;6.28;;
28304;SDS011;15569;42.652;23.040;2024-02-21T08:31:10;18.40;;;7.65;;
28304;SDS011;15569;42.652;23.040;2024-02-21T08:33:36;16.27;;;7.70;;
28304;SDS011;15569;42.652;23.040;2024-02-21T08:36:01;15.60;;;7.85;;
28304;SDS011;15569;42.652;23.040;2024-02-21T08:38:28;17.63;;;7.85;;
28304;SDS011;15569;42.652;23.040;2024-02-21T08:40:53;20.52;;;8.70;;
28304;SDS011;15569;42.652;23.040;2024-02-21T08:43:18;18.08;;;8.93;;
28304;SDS011;15569;42.652;23.040;2024-02-21T08:45:44;15.50;;;8.95;;
28304;SDS011;15569;42.652;23.040;2024-02-21T08:48:09;20.02;;;9.57;;
28304;SDS011;15569;42.652;23.040;2024-02-21T08:50:34;22.13;;;8.60;;
28304;SDS011;15569;42.652;23.040;2024-02-21T08:53:01;15.48;;;7.80;;
28304;SDS011;15569;42.652;23.040;2024-02-21T08:55:26;17.35;;;8.82;;
28304;SDS011;15569;42.652;23.040;2024-02-21T08:57:52;20.67;;;8.88;;
28304;SDS011;15569;42.652;23.040;2024-02-21T09:00:17;17.42;;;9.27;;
28304;SDS011;15569;42.652;23.040;2024-02-21T09:02:46;50.63;;;20.95;;
28304;SDS011;15569;42.652;23.040;2024-02-21T09:05:11;26.65;;;15.05;;
28304;SDS011;15569;42.652;23.040;2024-02-21T09:07:37;20.55;;;10.43;;
28304;SDS011;15569;42.652;23.040;2024-02-21T09:10:02;13.90;;;7.88;;
28304;SDS011;15569;42.652;23.040;2024-02-21T09:12:28;14.77;;;7.95;;
28304;SDS011;15569;42.652;23.040;2024-02-21T09:14:54;15.50;;;8.65;;
28304;SDS011;15569;42.652;23.040;2024-02-21T09:17:19;18.88;;;8.20;;
28304;SDS011;15569;42.652;23.040;2024-02-21T09:19:49;16.23;;;8.00;;
28304;SDS011;15569;42.652;23.040;2024-02-21T09:22:15;37.20;;;19.52;;
28304;SDS011;15569;42.652;23.040;2024-02-21T09:24:40;19.00;;;9.55;;
28304;SDS011;15569;42.652;23.040;2024-02-21T09:27:06;17.48;;;9.95;;
28304;SDS011;15569;42.652;23.040;2024-02-21T09:29:31;14.50;;;9.30;;
28304;SDS011;15569;42.652;23.040;2024-02-21T09:31:58;16.58;;;7.72;;
28304;SDS011;15569;42.652;23.040;2024-02-21T09:34:24;14.40;;;8.00;;
28304;SDS011;15569;42.652;23.040;2024-02-21T09:36:49;15.25;;;7.95;;
28304;SDS011;15569;42.652;23.040;2024-02-21T09:39:15;13.32;;;7.60;;
28304;SDS011;15569;42.652;23.040;2024-02-21T09:41:45;16.42;;;9.45;;
28304;SDS011;15569;42.652;23.040;2024-02-21T09:44:21;14.27;;;8.60;;
28304;SDS011;15569;42.652;23.040;2024-02-21T09:46:54;15.50;;;8.02;;
28304;SDS011;15569;42.652;23.040;2024-02-21T09:49:34;11.45;;;6.60;;
28304;SDS011;15569;42.652;23.040;2024-02-21T09:52:04;12.73;;;7.35;;
28304;SDS011;15569;42.652;23.040;2024-02-21T09:54:32;15.07;;;8.77;;
28304;SDS011;15569;42.652;23.040;2024-02-21T09:56:59;15.15;;;8.00;;
28304;SDS011;15569;42.652;23.040;2024-02-21T09:59:25;31.58;;;19.25;;
28304;SDS011;15569;42.652;23.040;2024-02-21T10:01:53;19.73;;;8.65;;
28304;SDS011;15569;42.652;23.040;2024-02-21T10:04:19;11.55;;;6.60;;
28304;SDS011;15569;42.652;23.040;2024-02-21T10:06:45;12.18;;;7.40;;
28304;SDS011;15569;42.652;23.040;2024-02-21T10:09:20;12.50;;;7.00;;
28304;SDS011;15569;42.652;23.040;2024-02-21T10:11:48;15.13;;;6.97;;
28304;SDS011;15569;42.652;23.040;2024-02-21T10:14:14;16.35;;;8.15;;
28304;SDS011;15569;42.652;23.040;2024-02-21T10:16:40;11.75;;;6.90;;
28304;SDS011;15569;42.652;23.040;2024-02-21T10:19:06;9.25;;;5.55;;
28304;SDS011;15569;42.652;23.040;2024-02-21T10:21:31;10.85;;;6.45;;
28304;SDS011;15569;42.652;23.040;2024-02-21T10:23:57;13.05;;;5.75;;
28304;SDS011;15569;42.652;23.040;2024-02-21T10:26:23;9.70;;;6.28;;
28304;SDS011;15569;42.652;23.040;2024-02-21T10:28:48;10.18;;;5.70;;
28304;SDS011;15569;42.652;23.040;2024-02-21T10:33:57;14.60;;;6.72;;
28304;SDS011;15569;42.652;23.040;2024-02-21T10:36:24;10.43;;;5.53;;
28304;SDS011;15569;42.652;23.040;2024-02-21T10:38:50;12.88;;;6.63;;
28304;SDS011;15569;42.652;23.040;2024-02-21T10:41:16;12.13;;;7.20;;
28304;SDS011;15569;42.652;23.040;2024-02-21T10:43:45;10.27;;;5.85;;
28304;SDS011;15569;42.652;23.040;2024-02-21T10:46:14;15.60;;;6.70;;
28304;SDS011;15569;42.652;23.040;2024-02-21T10:48:44;9.77;;;5.63;;
28304;SDS011;15569;42.652;23.040;2024-02-21T10:53:44;12.75;;;7.65;;
28304;SDS011;15569;42.652;23.040;2024-02-21T10:56:33;8.75;;;5.00;;
28304;SDS011;15569;42.652;23.040;2024-02-21T11:01:28;17.25;;;8.98;;
28304;SDS011;15569;42.652;23.040;2024-02-21T11:03:56;11.90;;;6.80;;
28304;SDS011;15569;42.652;23.040;2024-02-21T11:06:23;11.25;;;6.50;;
28304;SDS011;15569;42.652;23.040;2024-02-21T11:09:00;9.50;;;5.73;;
28304;SDS011;15569;42.652;23.040;2024-02-21T11:11:25;11.40;;;6.07;;
28304;SDS011;15569;42.652;23.040;2024-02-21T11:13:51;9.75;;;5.82;;
28304;SDS011;15569;42.652;23.040;2024-02-21T11:16:22;13.38;;;6.78;;
28304;SDS011;15569;42.652;23.040;2024-02-21T11:18:48;8.02;;;5.00;;
28304;SDS011;15569;42.652;23.040;2024-02-21T11:21:14;33.03;;;17.33;;
28304;SDS011;15569;42.652;23.040;2024-02-21T11:23:39;9.68;;;5.05;;
28304;SDS011;15569;42.652;23.040;2024-02-21T11:28:31;17.23;;;7.70;;
28304;SDS011;15569;42.652;23.040;2024-02-21T11:31:10;31.00;;;13.90;;
28304;SDS011;15569;42.652;23.040;2024-02-21T11:33:41;14.32;;;5.88;;
28304;SDS011;15569;42.652;23.040;2024-02-21T11:36:08;64.65;;;28.70;;
28304;SDS011;15569;42.652;23.040;2024-02-21T11:38:34;76.57;;;32.28;;
28304;SDS011;15569;42.652;23.040;2024-02-21T11:40:59;24.02;;;12.57;;
28304;SDS011;15569;42.652;23.040;2024-02-21T11:43:24;15.93;;;9.13;;
28304;SDS011;15569;42.652;23.040;2024-02-21T11:45:50;11.00;;;6.97;;
28304;SDS011;15569;42.652;23.040;2024-02-21T11:48:23;10.43;;;5.28;;
28304;SDS011;15569;42.652;23.040;2024-02-21T11:50:52;11.15;;;5.85;;
28304;SDS011;15569;42.652;23.040;2024-02-21T11:53:20;8.38;;;5.20;;
28304;SDS011;15569;42.652;23.040;2024-02-21T11:55:45;10.73;;;5.22;;
28304;SDS011;15569;42.652;23.040;2024-02-21T11:58:11;11.25;;;5.53;;
28304;SDS011;15569;42.652;23.040;2024-02-21T12:00:36;7.88;;;5.35;;
28304;SDS011;15569;42.652;23.040;2024-02-21T12:03:02;5.97;;;4.13;;
28304;SDS011;15569;42.652;23.040;2024-02-21T12:05:29;8.07;;;4.53;;
28304;SDS011;15569;42.652;23.040;2024-02-21T12:07:54;11.40;;;5.63;;
28304;SDS011;15569;42.652;23.040;2024-02-21T12:10:20;11.95;;;4.95;;
28304;SDS011;15569;42.652;23.040;2024-02-21T12:12:46;9.73;;;4.82;;
28304;SDS011;15569;42.652;23.040;2024-02-21T12:15:11;7.30;;;4.75;;
28304;SDS011;15569;42.652;23.040;2024-02-21T12:17:37;7.07;;;4.18;;
28304;SDS011;15569;42.652;23.040;2024-02-21T12:20:04;8.02;;;4.32;;
28304;SDS011;15569;42.652;23.040;2024-02-21T12:22:37;6.90;;;4.32;;
28304;SDS011;15569;42.652;23.040;2024-02-21T12:27:44;7.43;;;4.70;;
28304;SDS011;15569;42.652;23.040;2024-02-21T12:30:10;9.88;;;5.20;;
28304;SDS011;15569;42.652;23.040;2024-02-21T12:32:36;15.60;;;8.75;;
28304;SDS011;15569;42.652;23.040;2024-02-21T12:35:02;10.25;;;5.88;;
28304;SDS011;15569;42.652;23.040;2024-02-21T12:37:28;14.60;;;6.60;;
28304;SDS011;15569;42.652;23.040;2024-02-21T12:39:54;8.15;;;5.18;;
28304;SDS011;15569;42.652;23.040;2024-02-21T12:42:19;6.25;;;4.15;;
28304;SDS011;15569;42.652;23.040;2024-02-21T12:44:44;9.95;;;5.07;;
28304;SDS011;15569;42.652;23.040;2024-02-21T12:47:10;8.35;;;4.75;;
28304;SDS011;15569;42.652;23.040;2024-02-21T12:49:36;7.60;;;4.40;;
28304;SDS011;15569;42.652;23.040;2024-02-21T12:52:02;5.65;;;3.67;;
28304;SDS011;15569;42.652;23.040;2024-02-21T12:54:28;5.90;;;3.40;;
28304;SDS011;15569;42.652;23.040;2024-02-21T12:56:55;13.43;;;4.70;;
28304;SDS011;15569;42.652;23.040;2024-02-21T12:59:20;10.68;;;4.72;;
28304;SDS011;15569;42.652;23.040;2024-02-21T13:01:46;5.93;;;3.63;;
28304;SDS011;15569;42.652;23.040;2024-02-21T13:04:11;6.57;;;3.63;;
28304;SDS011;15569;42.652;23.040;2024-02-21T13:06:37;10.75;;;5.40;;
28304;SDS011;15569;42.652;23.040;2024-02-21T13:09:02;10.82;;;5.72;;
28304;SDS011;15569;42.652;23.040;2024-02-21T13:11:32;6.88;;;4.13;;
28304;SDS011;15569;42.652;23.040;2024-02-21T13:13:57;6.30;;;4.07;;
28304;SDS011;15569;42.652;23.040;2024-02-21T13:16:23;5.70;;;3.50;;
28304;SDS011;15569;42.652;23.040;2024-02-21T13:18:48;8.30;;;4.25;;
28304;SDS011;15569;42.652;23.040;2024-02-21T13:21:13;8.18;;;4.18;;
28304;SDS011;15569;42.652;23.040;2024-02-21T13:23:39;6.13;;;3.78;;
28304;SDS011;15569;42.652;23.040;2024-02-21T13:26:05;6.00;;;3.70;;
28304;SDS011;15569;42.652;23.040;2024-02-21T13:28:30;9.32;;;4.20;;
28304;SDS011;15569;42.652;23.040;2024-02-21T13:30:56;6.20;;;3.70;;
28304;SDS011;15569;42.652;23.040;2024-02-21T13:33:22;8.43;;;4.53;;
28304;SDS011;15569;42.652;23.040;2024-02-21T13:35:48;8.02;;;4.10;;
28304;SDS011;15569;42.652;23.040;2024-02-21T13:38:13;5.82;;;3.92;;
28304;SDS011;15569;42.652;23.040;2024-02-21T13:40:39;9.95;;;4.32;;
28304;SDS011;15569;42.652;23.040;2024-02-21T13:43:04;15.68;;;8.82;;
28304;SDS011;15569;42.652;23.040;2024-02-21T13:45:30;6.47;;;4.25;;
28304;SDS011;15569;42.652;23.040;2024-02-21T13:47:56;6.65;;;4.55;;
28304;SDS011;15569;42.652;23.040;2024-02-21T13:50:23;7.13;;;4.32;;
28304;SDS011;15569;42.652;23.040;2024-02-21T13:52:54;7.00;;;4.60;;
28304;SDS011;15569;42.652;23.040;2024-02-21T13:55:19;6.70;;;4.38;;
28304;SDS011;15569;42.652;23.040;2024-02-21T13:57:47;5.28;;;3.88;;
28304;SDS011;15569;42.652;23.040;2024-02-21T14:00:13;5.47;;;3.53;;
28304;SDS011;15569;42.652;23.040;2024-02-21T14:02:38;4.35;;;3.38;;
28304;SDS011;15569;42.652;23.040;2024-02-21T14:05:04;6.55;;;3.20;;
28304;SDS011;15569;42.652;23.040;2024-02-21T14:07:31;5.20;;;3.63;;
28304;SDS011;15569;42.652;23.040;2024-02-21T14:09:58;6.07;;;3.85;;
28304;SDS011;15569;42.652;23.040;2024-02-21T14:12:24;6.18;;;3.67;;
28304;SDS011;15569;42.652;23.040;2024-02-21T14:14:49;5.40;;;3.30;;
28304;SDS011;15569;42.652;23.040;2024-02-21T14:17:15;6.25;;;3.85;;
28304;SDS011;15569;42.652;23.040;2024-02-21T14:19:40;4.55;;;3.28;;
28304;SDS011;15569;42.652;23.040;2024-02-21T14:22:06;6.10;;;3.00;;
28304;SDS011;15569;42.652;23.040;2024-02-21T14:24:32;5.05;;;3.10;;
28304;SDS011;15569;42.652;23.040;2024-02-21T14:26:57;4.18;;;2.88;;
28304;SDS011;15569;42.652;23.040;2024-02-21T14:29:22;5.90;;;3.80;;
28304;SDS011;15569;42.652;23.040;2024-02-21T14:31:48;7.53;;;4.28;;